createdAt,value
2023-01-28T00:00:26.895Z,1.00
2023-01-28T00:04:54.311Z,1.10
2023-01-28T00:09:26.890Z,1.20
2023-01-28T00:13:59.311Z,0.60
2023-01-28T00:18:32.099Z,0.80
2023-01-28T00:23:04.854Z,1.00
2023-01-28T00:27:56.438Z,0.80
2023-01-28T00:32:28.177Z,1.40
2023-01-28T00:37:18.163Z,1.70
2023-01-28T00:41:50.489Z,1.40
2023-01-28T00:46:23.085Z,1.70
2023-01-28T00:50:56.095Z,0.90
2023-01-28T00:55:28.937Z,1.20
2023-01-28T01:00:02.163Z,0.90
2023-01-28T01:04:35.059Z,0.70
2023-01-28T01:09:08.616Z,0.80
2023-01-28T01:13:41.321Z,1.30
2023-01-28T01:18:14.034Z,0.90
2023-01-28T01:22:46.601Z,1.00
2023-01-28T01:27:18.891Z,1.00
2023-01-28T01:31:51.851Z,1.40
2023-01-28T01:36:24.381Z,0.90
2023-01-28T01:41:14.640Z,1.20
2023-01-28T01:45:48.813Z,2.00
2023-01-28T01:50:15.568Z,1.50
2023-01-28T01:54:48.105Z,1.20
2023-01-28T01:59:21.334Z,0.90
2023-01-28T02:03:54.149Z,1.40
2023-01-28T02:08:59.457Z,0.70
2023-01-28T02:13:29.829Z,0.90
2023-01-28T02:18:02.515Z,0.80
2023-01-28T02:22:36.254Z,0.80
2023-01-28T02:27:07.881Z,0.90
2023-01-28T02:31:40.398Z,0.80
2023-01-28T02:36:11.592Z,0.80
2023-01-28T02:40:46.574Z,0.60
2023-01-28T02:45:19.337Z,1.10
2023-01-28T02:49:45.971Z,0.80
2023-01-28T02:54:13.984Z,1.00
2023-01-28T02:59:04.684Z,1.00
2023-01-28T03:03:40.351Z,0.90
2023-01-28T03:08:12.849Z,0.90
2023-01-28T03:12:43.778Z,1.00
2023-01-28T03:17:15.024Z,0.90
2023-01-28T03:21:52.040Z,1.10
2023-01-28T03:31:16.816Z,1.10
2023-01-28T03:35:50.965Z,1.20
2023-01-28T03:40:18.975Z,0.90
2023-01-28T03:44:50.554Z,1.70
2023-01-28T03:49:23.432Z,1.50
2023-01-28T03:53:55.791Z,1.40
2023-01-28T03:58:30.535Z,1.10
2023-01-28T04:03:03.144Z,1.00
2023-01-28T04:07:35.785Z,1.10
2023-01-28T04:12:08.201Z,1.00
2023-01-28T04:16:40.735Z,0.90
2023-01-28T04:21:27.285Z,1.00
2023-01-28T04:25:59.547Z,1.30
2023-01-28T04:30:31.676Z,0.80
2023-01-28T04:35:03.246Z,0.80
2023-01-28T04:39:48.373Z,1.40
2023-01-28T04:44:20.957Z,0.70
2023-01-28T04:48:59.283Z,1.20
2023-01-28T04:53:30.447Z,1.10
2023-01-28T04:58:02.551Z,1.00
2023-01-28T05:02:35.540Z,1.10
2023-01-28T05:07:07.872Z,1.20
2023-01-28T05:11:40.763Z,2.00
2023-01-28T05:16:13.347Z,1.50
2023-01-28T05:20:45.735Z,1.00
2023-01-28T05:25:17.962Z,0.80
2023-01-28T05:29:41.691Z,0.70
2023-01-28T05:34:14.310Z,0.80
2023-01-28T05:38:47.174Z,1.00
2023-01-28T05:43:20.263Z,1.70
2023-01-28T05:48:06.938Z,1.00
2023-01-28T05:52:51.716Z,0.90
2023-01-28T05:57:24.479Z,0.70
2023-01-28T06:01:57.167Z,0.80
2023-01-28T06:06:30.120Z,1.00
2023-01-28T06:11:06.619Z,0.70
2023-01-28T06:15:57.248Z,1.00
2023-01-28T06:20:32.643Z,0.80
2023-01-28T06:30:26.917Z,1.40
2023-01-28T06:35:02.825Z,0.80
2023-01-28T06:39:36.947Z,0.70
2023-01-28T06:44:10.971Z,0.70
2023-01-28T06:48:44.383Z,0.80
2023-01-28T06:53:38.634Z,0.80
2023-01-28T07:02:49.306Z,0.80
2023-01-28T07:07:29.662Z,1.20
2023-01-28T07:12:17.192Z,0.90
2023-01-28T07:16:52.281Z,0.80
2023-01-28T07:21:25.709Z,1.20
2023-01-28T07:26:01.285Z,0.90
2023-01-28T07:30:35.778Z,0.70
2023-01-28T07:35:08.353Z,0.60
2023-01-28T07:40:15.641Z,0.80
2023-01-28T07:44:49.173Z,0.80
2023-01-28T07:54:15.840Z,2.70
2023-01-28T08:03:40.696Z,2.90
2023-01-28T08:08:17.794Z,3.20
2023-01-28T08:12:55.572Z,3.80
2023-01-28T08:17:34.275Z,3.20
2023-01-28T08:27:00.615Z,2.90
2023-01-28T08:31:36.357Z,4.30
2023-01-28T08:36:11.038Z,4.40
2023-01-28T08:40:46.213Z,4.10
2023-01-28T08:45:20.408Z,3.50
2023-01-28T08:49:49.656Z,3.30
2023-01-28T08:54:24.336Z,2.90
2023-01-28T08:58:58.245Z,4.40
2023-01-28T09:03:33.270Z,3.50
2023-01-28T09:08:06.687Z,3.90
2023-01-28T09:12:42.677Z,5.40
2023-01-28T09:17:31.537Z,5.00
2023-01-28T09:22:25.069Z,4.20
2023-01-28T09:27:15.346Z,3.70
2023-01-28T09:32:06.606Z,3.40
2023-01-28T09:36:39.844Z,4.00
2023-01-28T09:41:38.035Z,4.40
2023-01-28T09:46:13.735Z,5.20
2023-01-28T09:50:49.199Z,4.60
2023-01-28T09:55:31.449Z,4.60
2023-01-28T09:59:59.900Z,5.80
2023-01-28T10:04:44.556Z,6.00
2023-01-28T10:09:18.573Z,4.80
2023-01-28T10:14:09.898Z,5.60
2023-01-28T10:18:47.691Z,5.00
2023-01-28T10:23:33.279Z,5.20
2023-01-28T10:28:09.531Z,5.20
2023-01-28T10:32:43.385Z,4.10
2023-01-28T10:37:15.576Z,4.90
2023-01-28T10:41:57.401Z,4.20
2023-01-28T10:46:46.457Z,3.90
2023-01-28T10:51:20.106Z,4.30
2023-01-28T10:56:07.627Z,4.90
2023-01-28T11:00:33.172Z,4.10
2023-01-28T11:05:06.233Z,3.40
2023-01-28T11:09:39.027Z,5.10
2023-01-28T11:14:31.950Z,6.90
2023-01-28T11:19:07.470Z,7.10
2023-01-28T11:23:40.319Z,4.50
2023-01-28T11:28:12.979Z,3.20
2023-01-28T11:32:45.428Z,4.90
2023-01-28T11:37:18.290Z,4.80
2023-01-28T11:41:50.597Z,4.20
2023-01-28T11:46:40.565Z,4.40
2023-01-28T11:51:28.070Z,3.80
2023-01-28T11:56:15.975Z,3.50
2023-01-28T12:00:46.396Z,6.00
2023-01-28T12:05:20.983Z,5.00
2023-01-28T12:09:54.862Z,6.60
2023-01-28T12:14:30.274Z,6.20
2023-01-28T12:19:07.477Z,5.40
2023-01-28T12:23:40.593Z,4.70
2023-01-28T12:28:24.694Z,3.90
2023-01-28T12:33:09.445Z,4.60
2023-01-28T12:37:46.858Z,2.20
2023-01-28T12:42:25.215Z,3.90
2023-01-28T12:46:56.145Z,3.70
2023-01-28T12:51:31.838Z,4.40
2023-01-28T12:56:28.980Z,4.90
2023-01-28T13:00:59.586Z,4.70
2023-01-28T13:05:33.853Z,4.60
2023-01-28T13:10:00.976Z,5.70
2023-01-28T13:14:33.397Z,5.20
2023-01-28T13:19:03.910Z,4.30
2023-01-28T13:23:42.661Z,4.40
2023-01-28T13:28:14.841Z,4.40
2023-01-28T13:32:48.415Z,5.60
2023-01-28T13:37:27.118Z,2.80
2023-01-28T13:41:59.375Z,2.60
2023-01-28T13:46:38.240Z,2.40
2023-01-28T13:51:22.818Z,3.20
2023-01-28T13:55:55.038Z,2.90
2023-01-28T14:00:36.295Z,3.20
2023-01-28T14:05:07.116Z,2.80
2023-01-28T14:09:46.152Z,2.70
2023-01-28T14:14:23.047Z,3.00
2023-01-28T14:19:07.818Z,3.90
2023-01-28T14:23:35.061Z,4.30
2023-01-28T14:28:06.677Z,4.60
2023-01-28T14:32:39.138Z,4.10
2023-01-28T14:37:11.301Z,3.50
2023-01-28T14:41:43.709Z,3.90
2023-01-28T14:46:31.537Z,4.20
2023-01-28T14:51:06.789Z,4.70
2023-01-28T14:55:59.817Z,3.70
2023-01-28T15:00:36.732Z,3.00
2023-01-28T15:05:09.439Z,3.20
2023-01-28T15:09:48.062Z,3.70
2023-01-28T15:14:15.658Z,3.70
2023-01-28T15:18:43.418Z,4.60
2023-01-28T15:28:02.014Z,4.10
2023-01-28T15:32:34.329Z,5.20
2023-01-28T15:37:06.585Z,5.20
2023-01-28T15:41:42.099Z,4.00
2023-01-28T15:46:33.599Z,4.10
2023-01-28T15:51:05.546Z,2.90
2023-01-28T15:55:38.592Z,3.50
2023-01-28T16:00:17.596Z,5.10
2023-01-28T16:05:03.374Z,5.50
2023-01-28T16:09:36.202Z,6.40
2023-01-28T16:14:12.037Z,6.30
2023-01-28T16:18:44.857Z,4.30
2023-01-28T16:23:20.498Z,5.90
2023-01-28T16:27:48.809Z,7.90
2023-01-28T16:32:21.635Z,7.50
2023-01-28T16:36:54.231Z,6.70
2023-01-28T16:41:27.544Z,5.90
2023-01-28T16:45:59.879Z,7.40
2023-01-28T16:50:32.702Z,6.00
2023-01-28T16:55:19.765Z,6.10
2023-01-28T16:59:52.062Z,5.10
2023-01-28T17:04:23.756Z,6.90
2023-01-28T17:08:51.613Z,6.40
2023-01-28T17:13:24.236Z,8.30
2023-01-28T17:17:56.682Z,8.40
2023-01-28T17:22:28.877Z,7.20
2023-01-28T17:26:56.146Z,8.60
2023-01-28T17:31:29.101Z,8.00
2023-01-28T17:36:01.720Z,7.70
2023-01-28T17:40:34.912Z,7.60
2023-01-28T17:49:56.316Z,6.20
2023-01-28T17:54:30.139Z,6.90
2023-01-28T17:59:02.915Z,6.50
2023-01-28T18:03:35.539Z,6.60
2023-01-28T18:08:08.179Z,6.40
2023-01-28T18:12:41.591Z,6.20
2023-01-28T18:17:14.302Z,5.90
2023-01-28T18:21:53.119Z,4.80
2023-01-28T18:26:25.581Z,6.30
2023-01-28T18:30:58.081Z,5.20
2023-01-28T18:35:30.804Z,5.70
2023-01-28T18:40:04.058Z,4.00
2023-01-28T18:44:35.367Z,3.20
2023-01-28T18:49:07.759Z,2.60
2023-01-28T18:53:29.977Z,3.90
2023-01-28T18:58:02.327Z,3.40
2023-01-28T19:02:35.404Z,3.40
2023-01-28T19:07:09.870Z,5.00
2023-01-28T19:11:38.944Z,3.50
2023-01-28T19:16:03.680Z,3.00
2023-01-28T19:20:36.006Z,3.40
2023-01-28T19:25:10.722Z,3.00
2023-01-28T19:29:57.244Z,2.40
2023-01-28T19:34:29.900Z,2.30
2023-01-28T19:39:02.645Z,2.00
2023-01-28T19:43:35.199Z,2.40
2023-01-28T19:48:07.501Z,2.70
2023-01-28T19:52:53.871Z,2.00
2023-01-28T19:57:22.683Z,2.30
2023-01-28T20:02:09.719Z,2.60
2023-01-28T20:06:56.262Z,1.90
2023-01-28T20:11:29.713Z,2.00
2023-01-28T20:16:00.998Z,1.80
2023-01-28T20:20:33.781Z,2.80
2023-01-28T20:25:06.617Z,2.00
2023-01-28T20:29:37.055Z,2.20
2023-01-28T20:34:02.277Z,2.10
2023-01-28T20:38:35.849Z,2.90
2023-01-28T20:43:06.613Z,2.90
2023-01-28T20:47:39.222Z,2.70
2023-01-28T20:52:11.802Z,3.10
2023-01-28T20:56:43.497Z,2.50
2023-01-28T21:01:16.032Z,2.90
2023-01-28T21:05:39.148Z,2.20
2023-01-28T21:10:18.869Z,3.20
2023-01-28T21:14:51.507Z,2.70
2023-01-28T21:19:24.371Z,3.10
2023-01-28T21:23:51.579Z,3.70
2023-01-28T21:28:24.704Z,2.30
2023-01-28T21:32:57.801Z,3.20
2023-01-28T21:37:18.959Z,2.80
2023-01-28T21:42:06.194Z,2.70
2023-01-28T21:46:39.715Z,2.70
2023-01-28T21:51:11.821Z,3.10
2023-01-28T21:55:38.046Z,3.10
2023-01-28T22:00:10.590Z,4.00
2023-01-28T22:04:46.098Z,3.10
2023-01-28T22:09:18.748Z,3.10
2023-01-28T22:13:45.435Z,2.50
2023-01-28T22:18:17.777Z,2.20
2023-01-28T22:22:50.739Z,2.40
2023-01-28T22:27:23.219Z,2.60
2023-01-28T22:31:55.950Z,3.60
2023-01-28T22:36:28.755Z,2.80
2023-01-28T22:40:50.617Z,2.40
2023-01-28T22:45:22.743Z,2.30
2023-01-28T22:49:55.078Z,3.30
2023-01-28T22:54:27.964Z,3.00
2023-01-28T22:59:00.726Z,2.80
2023-01-28T23:03:27.620Z,3.40
2023-01-28T23:08:00.086Z,3.20
2023-01-28T23:12:32.700Z,3.40
2023-01-28T23:17:17.736Z,3.80
2023-01-28T23:21:48.926Z,3.20
2023-01-28T23:26:21.381Z,3.10
2023-01-28T23:30:55.329Z,3.30
2023-01-28T23:35:42.406Z,3.40
2023-01-28T23:40:09.502Z,3.10
2023-01-28T23:44:42.052Z,4.10
2023-01-28T23:49:14.602Z,3.40
2023-01-28T23:53:47.652Z,2.90
2023-01-28T23:58:37.479Z,3.40
